sensor_id;sensor_type;location;lat;lon;timestamp;pressure;altitude;pressure_sealevel;temperature;humidity
50650;BME280;36621;60.058;30.346;2022-11-20T00:03:23;101795.69;;;-3.33;62.60
50650;BME280;36621;60.058;30.346;2022-11-20T00:10:56;101806.75;;;-3.27;62.61
50650;BME280;36621;60.058;30.346;2022-11-20T00:18:28;101753.91;;;-3.60;62.23
50650;BME280;36621;60.058;30.346;2022-11-20T00:26:02;101752.75;;;-3.39;61.74
50650;BME280;36621;60.058;30.346;2022-11-20T00:33:35;101789.13;;;-2.94;60.81
50650;BME280;36621;60.058;30.346;2022-11-20T00:41:09;101703.75;;;-3.30;60.75
50650;BME280;36621;60.058;30.346;2022-11-20T00:48:42;101782.06;;;-3.03;61.38
50650;BME280;36621;60.058;30.346;2022-11-20T00:56:18;101768.78;;;-2.87;61.37
50650;BME280;36621;60.058;30.346;2022-11-20T01:03:52;101714.50;;;-3.40;61.78
50650;BME280;36621;60.058;30.346;2022-11-20T01:11:26;101640.66;;;-4.02;62.11
50650;BME280;36621;60.058;30.346;2022-11-20T01:19:01;101713.34;;;-3.19;60.53
50650;BME280;36621;60.058;30.346;2022-11-20T01:26:36;101742.75;;;-3.11;61.18
50650;BME280;36621;60.058;30.346;2022-11-20T01:34:11;101736.75;;;-3.13;60.91
50650;BME280;36621;60.058;30.346;2022-11-20T01:41:45;101741.44;;;-3.07;60.56
50650;BME280;36621;60.058;30.346;2022-11-20T01:49:38;101698.16;;;-3.45;60.80
50650;BME280;36621;60.058;30.346;2022-11-20T01:57:15;101727.16;;;-2.89;60.58
50650;BME280;36621;60.058;30.346;2022-11-20T02:04:49;101720.16;;;-2.90;59.75
50650;BME280;36621;60.058;30.346;2022-11-20T02:12:23;101716.03;;;-2.76;59.50
50650;BME280;36621;60.058;30.346;2022-11-20T02:20:34;101729.25;;;-2.75;59.87
50650;BME280;36621;60.058;30.346;2022-11-20T02:28:07;101720.56;;;-2.77;59.79
50650;BME280;36621;60.058;30.346;2022-11-20T02:35:41;101706.72;;;-2.72;59.61
50650;BME280;36621;60.058;30.346;2022-11-20T02:43:16;101683.09;;;-2.85;59.92
50650;BME280;36621;60.058;30.346;2022-11-20T02:50:48;101626.66;;;-3.51;60.20
50650;BME280;36621;60.058;30.346;2022-11-20T02:58:21;101708.69;;;-2.83;60.05
50650;BME280;36621;60.058;30.346;2022-11-20T03:05:55;101626.38;;;-3.40;60.35
50650;BME280;36621;60.058;30.346;2022-11-20T03:13:31;101688.72;;;-2.97;60.08
50650;BME280;36621;60.058;30.346;2022-11-20T03:21:03;101685.50;;;-3.08;60.23
50650;BME280;36621;60.058;30.346;2022-11-20T03:28:36;101662.41;;;-3.18;60.61
50650;BME280;36621;60.058;30.346;2022-11-20T03:36:12;101678.03;;;-2.97;59.80
50650;BME280;36621;60.058;30.346;2022-11-20T03:43:48;101657.94;;;-3.09;59.66
50650;BME280;36621;60.058;30.346;2022-11-20T03:51:23;101690.13;;;-3.19;60.91
50650;BME280;36621;60.058;30.346;2022-11-20T03:58:57;101651.38;;;-3.49;61.27
50650;BME280;36621;60.058;30.346;2022-11-20T04:06:32;101682.31;;;-3.38;61.47
50650;BME280;36621;60.058;30.346;2022-11-20T16:21:40;101797.03;;;-2.07;64.49
50650;BME280;36621;60.058;30.346;2022-11-20T16:29:13;101789.00;;;-2.15;64.47
50650;BME280;36621;60.058;30.346;2022-11-20T16:36:47;101788.34;;;-2.09;64.07
50650;BME280;36621;60.058;30.346;2022-11-20T16:44:21;101789.88;;;-1.98;63.91
50650;BME280;36621;60.058;30.346;2022-11-20T16:52:05;101796.53;;;-2.02;64.03
50650;BME280;36621;60.058;30.346;2022-11-20T16:59:48;101808.44;;;-2.05;64.43
50650;BME280;36621;60.058;30.346;2022-11-20T17:07:22;101804.06;;;-2.06;64.26
50650;BME280;36621;60.058;30.346;2022-11-20T17:14:56;101815.88;;;-2.25;65.13
50650;BME280;36621;60.058;30.346;2022-11-20T17:22:33;101763.88;;;-2.31;63.99
50650;BME280;36621;60.058;30.346;2022-11-20T17:30:10;101815.63;;;-1.97;63.47
50650;BME280;36621;60.058;30.346;2022-11-20T17:37:48;101807.72;;;-2.15;64.73
50650;BME280;36621;60.058;30.346;2022-11-20T17:45:24;101841.09;;;-1.93;63.56
50650;BME280;36621;60.058;30.346;2022-11-20T17:52:58;101833.09;;;-1.77;63.62
50650;BME280;36621;60.058;30.346;2022-11-20T18:00:31;101853.88;;;-1.54;62.83
50650;BME280;36621;60.058;30.346;2022-11-20T18:08:05;101858.41;;;-1.54;63.61
50650;BME280;36621;60.058;30.346;2022-11-20T18:15:38;101858.09;;;-1.51;62.95
50650;BME280;36621;60.058;30.346;2022-11-20T18:23:19;101855.81;;;-1.81;63.60
50650;BME280;36621;60.058;30.346;2022-11-20T18:30:55;101860.34;;;-1.81;63.26
50650;BME280;36621;60.058;30.346;2022-11-20T18:38:29;101870.13;;;-1.55;62.82
50650;BME280;36621;60.058;30.346;2022-11-20T18:46:05;101831.75;;;-1.72;63.04
50650;BME280;36621;60.058;30.346;2022-11-20T18:53:43;101870.78;;;-1.53;64.01
50650;BME280;36621;60.058;30.346;2022-11-20T19:01:16;101884.72;;;-1.33;62.69
50650;BME280;36621;60.058;30.346;2022-11-20T19:08:51;101809.50;;;-1.57;62.11
50650;BME280;36621;60.058;30.346;2022-11-20T19:16:26;101851.22;;;-1.37;61.02
50650;BME280;36621;60.058;30.346;2022-11-20T19:24:02;101879.88;;;-1.22;61.13
50650;BME280;36621;60.058;30.346;2022-11-20T19:31:35;101891.59;;;-1.06;60.31
50650;BME280;36621;60.058;30.346;2022-11-20T19:39:09;101897.63;;;-0.96;60.42
50650;BME280;36621;60.058;30.346;2022-11-20T19:46:43;101906.69;;;-0.97;59.36
50650;BME280;36621;60.058;30.346;2022-11-20T19:54:16;101906.69;;;-1.13;59.08
50650;BME280;36621;60.058;30.346;2022-11-20T20:01:48;101921.25;;;-1.08;58.87
50650;BME280;36621;60.058;30.346;2022-11-20T20:09:21;101916.75;;;-0.99;59.52
50650;BME280;36621;60.058;30.346;2022-11-20T20:16:59;101914.88;;;-0.98;58.10
50650;BME280;36621;60.058;30.346;2022-11-20T20:24:32;101930.78;;;-1.22;58.06
50650;BME280;36621;60.058;30.346;2022-11-20T20:32:05;101919.38;;;-1.32;57.12
50650;BME280;36621;60.058;30.346;2022-11-20T20:39:38;101930.97;;;-1.31;56.54
50650;BME280;36621;60.058;30.346;2022-11-20T20:47:10;101932.94;;;-1.33;56.86
50650;BME280;36621;60.058;30.346;2022-11-20T20:54:43;101921.03;;;-1.39;56.12
50650;BME280;36621;60.058;30.346;2022-11-20T21:02:16;101937.16;;;-1.31;55.73
50650;BME280;36621;60.058;30.346;2022-11-20T21:09:51;101938.44;;;-1.43;55.63
50650;BME280;36621;60.058;30.346;2022-11-20T21:17:23;101888.13;;;-1.82;56.54
50650;BME280;36621;60.058;30.346;2022-11-20T21:24:58;101926.88;;;-1.52;56.18
50650;BME280;36621;60.058;30.346;2022-11-20T21:32:30;101942.66;;;-1.32;55.34
50650;BME280;36621;60.058;30.346;2022-11-20T21:40:04;101945.84;;;-1.29;55.23
50650;BME280;36621;60.058;30.346;2022-11-20T21:47:36;101945.03;;;-1.29;55.75
50650;BME280;36621;60.058;30.346;2022-11-20T21:55:09;101930.66;;;-1.71;55.10
50650;BME280;36621;60.058;30.346;2022-11-20T22:02:41;101955.75;;;-1.72;56.16
50650;BME280;36621;60.058;30.346;2022-11-20T22:10:14;101867.53;;;-2.24;54.74
50650;BME280;36621;60.058;30.346;2022-11-20T22:17:47;101960.97;;;-1.70;54.23
50650;BME280;36621;60.058;30.346;2022-11-20T22:25:37;101930.56;;;-1.96;54.31
50650;BME280;36621;60.058;30.346;2022-11-20T22:33:10;101967.22;;;-1.96;54.69
50650;BME280;36621;60.058;30.346;2022-11-20T22:40:42;101936.47;;;-2.18;55.90
50650;BME280;36621;60.058;30.346;2022-11-20T22:48:16;101946.97;;;-1.99;54.71
50650;BME280;36621;60.058;30.346;2022-11-20T22:55:49;101931.06;;;-2.00;55.07
50650;BME280;36621;60.058;30.346;2022-11-20T23:03:23;101964.72;;;-1.89;55.29
50650;BME280;36621;60.058;30.346;2022-11-20T23:10:58;101991.59;;;-1.73;54.64
50650;BME280;36621;60.058;30.346;2022-11-20T23:18:31;101992.97;;;-1.69;54.37
50650;BME280;36621;60.058;30.346;2022-11-20T23:26:06;101978.00;;;-1.80;52.95
50650;BME280;36621;60.058;30.346;2022-11-20T23:33:41;101993.28;;;-1.98;53.33
50650;BME280;36621;60.058;30.346;2022-11-20T23:41:14;102004.53;;;-2.21;52.68
50650;BME280;36621;60.058;30.346;2022-11-20T23:48:46;101980.13;;;-2.44;53.94
50650;BME280;36621;60.058;30.346;2022-11-20T23:56:19;101996.34;;;-2.64;53.22
